Archiv-/Tagesdaten

--Timestamp---	Temp	Chill	HIndex	Humid	Dewpt	 Wind 	HiWind	WindDir	Rain 	Barom	Solar	 ET  	 UV 
--------------	----	-----	------	-----	-----	------	------	-------	-----	-----	-----	-----	----
20100202 00:00	-3.5	-9.2	-3.5	87	-5.3	18	29	248	0.0	1015.6	0	0.025	0.0
20100202 00:05	-3.4	-9.6	-3.4	86	-5.4	21	34	248	0.0	1015.8	0	0.000	0.0
20100202 00:10	-3.3	-9.3	-3.3	86	-5.3	19	32	270	0.0	1015.7	0	0.000	0.0
20100202 00:15	-3.3	-9.0	-3.3	87	-5.2	18	29	248	0.0	1015.7	0	0.000	0.0
20100202 00:20	-3.4	-9.4	-3.4	88	-5.1	19	35	248	0.0	1015.8	0	0.000	0.0
20100202 00:25	-3.4	-9.2	-3.4	88	-5.1	18	31	248	0.0	1015.8	0	0.000	0.0
20100202 00:30	-3.4	-8.9	-3.4	89	-5.0	16	27	270	0.0	1015.9	0	0.000	0.0
20100202 00:35	-3.5	-9.8	-3.5	89	-5.0	21	40	248	0.0	1015.9	0	0.000	0.0
20100202 00:40	-3.5	-9.5	-3.5	89	-5.0	19	40	270	0.0	1015.8	0	0.000	0.0
20100202 00:45	-3.5	-9.5	-3.5	89	-5.0	19	32	248	0.2	1015.8	0	0.000	0.0
20100202 00:50	-3.5	-8.9	-3.5	89	-5.0	16	31	248	0.0	1015.7	0	0.000	0.0
20100202 00:55	-3.5	-9.2	-3.5	90	-4.9	18	29	248	0.0	1015.8	0	0.000	0.0
20100202 01:00	-3.5	-8.9	-3.5	90	-4.9	16	26	248	0.0	1015.8	0	0.025	0.0
20100202 01:05	-3.4	-9.5	-3.4	89	-5.0	19	35	248	0.0	1015.6	0	0.000	0.0
20100202 01:10	-3.4	-9.2	-3.4	89	-5.0	18	39	270	0.0	1015.6	0	0.000	0.0
20100202 01:15	-3.4	-9.2	-3.4	89	-5.0	18	32	270	0.0	1015.8	0	0.000	0.0
20100202 01:20	-3.4	-9.2	-3.4	90	-4.8	18	29	270	0.0	1015.7	0	0.000	0.0
20100202 01:25	-3.4	-9.4	-3.4	89	-4.9	19	29	270	0.0	1015.7	0	0.000	0.0
20100202 01:30	-3.4	-10.1	-3.4	89	-4.9	24	39	248	0.0	1015.9	0	0.000	0.0
20100202 01:35	-3.4	-9.6	-3.4	89	-4.9	21	35	248	0.0	1015.9	0	0.000	0.0
20100202 01:40	-3.4	-9.4	-3.4	89	-4.9	19	31	270	0.0	1016.0	0	0.000	0.0
20100202 01:45	-3.4	-9.6	-3.4	90	-4.8	21	35	270	0.0	1016.1	0	0.000	0.0
20100202 01:50	-3.4	-9.2	-3.4	90	-4.8	18	42	270	0.0	1016.2	0	0.000	0.0
20100202 01:55	-3.4	-9.5	-3.4	90	-4.8	19	34	270	0.2	1016.2	0	0.000	0.0
20100202 02:00	-3.4	-9.5	-3.4	91	-4.7	19	31	270	0.0	1016.3	0	0.025	0.0
20100202 02:05	-3.4	-9.2	-3.4	90	-4.8	18	29	270	0.0	1016.3	0	0.000	0.0
20100202 02:10	-3.4	-9.5	-3.4	90	-4.8	19	31	270	0.0	1016.3	0	0.000	0.0
20100202 02:15	-3.4	-9.2	-3.4	90	-4.8	18	27	270	0.0	1016.4	0	0.000	0.0
20100202 02:20	-3.4	-9.4	-3.4	90	-4.8	19	34	270	0.0	1016.5	0	0.000	0.0
20100202 02:25	-3.3	-9.6	-3.3	89	-4.9	21	37	270	0.0	1016.6	0	0.000	0.0
20100202 02:30	-3.3	-9.2	-3.3	89	-4.8	19	26	270	0.0	1016.7	0	0.000	0.0
20100202 02:35	-3.3	-9.0	-3.3	90	-4.7	18	27	270	0.0	1016.7	0	0.000	0.0
20100202 02:40	-3.3	-9.0	-3.3	90	-4.7	18	32	270	0.0	1016.7	0	0.000	0.0
20100202 02:45	-3.3	-9.0	-3.3	90	-4.7	18	29	270	0.2	1016.8	0	0.000	0.0
20100202 02:50	-3.3	-9.0	-3.3	91	-4.6	18	34	270	0.0	1016.9	0	0.000	0.0
20100202 02:55	-3.3	-8.7	-3.3	91	-4.6	16	27	270	0.0	1017.0	0	0.000	0.0
20100202 03:00	-3.3	-8.4	-3.3	91	-4.6	14	24	270	0.0	1017.1	0	0.000	0.0
20100202 03:05	-3.3	-8.4	-3.3	91	-4.6	14	26	270	0.0	1017.2	0	0.000	0.0
20100202 03:10	-3.4	-8.1	-3.4	91	-4.6	13	21	270	0.0	1017.3	0	0.000	0.0
20100202 03:15	-3.4	-8.5	-3.4	91	-4.6	14	26	248	0.0	1017.3	0	0.000	0.0
20100202 03:20	-3.4	-8.8	-3.4	91	-4.6	16	31	270	0.0	1017.2	0	0.000	0.0
20100202 03:25	-3.3	-9.0	-3.3	91	-4.6	18	31	270	0.0	1017.3	0	0.000	0.0
20100202 03:30	-3.3	-9.0	-3.3	90	-4.7	18	31	270	0.0	1017.3	0	0.000	0.0
20100202 03:35	-3.3	-8.7	-3.3	90	-4.7	16	24	270	0.0	1017.2	0	0.000	0.0
20100202 03:40	-3.3	-8.4	-3.3	90	-4.7	14	31	270	0.0	1017.3	0	0.000	0.0
20100202 03:45	-3.3	-7.6	-3.3	90	-4.7	11	23	270	0.0	1017.3	0	0.000	0.0
20100202 03:50	-3.3	-9.0	-3.3	90	-4.7	18	26	270	0.0	1017.4	0	0.000	0.0
20100202 03:55	-3.3	-9.3	-3.3	90	-4.7	19	37	270	0.0	1017.4	0	0.000	0.0
20100202 04:00	-3.3	-9.5	-3.3	90	-4.7	21	32	270	0.0	1017.4	0	0.000	0.0
20100202 04:05	-3.3	-9.2	-3.3	90	-4.7	19	37	270	0.0	1017.6	0	0.000	0.0
20100202 04:10	-3.3	-9.2	-3.3	90	-4.7	19	31	270	0.0	1017.5	0	0.000	0.0
20100202 04:15	-3.3	-9.0	-3.3	90	-4.7	18	29	270	0.0	1017.6	0	0.000	0.0
20100202 04:20	-3.2	-9.4	-3.2	90	-4.6	21	37	270	0.0	1017.5	0	0.000	0.0
20100202 04:25	-3.2	-9.4	-3.2	90	-4.6	21	34	270	0.0	1017.7	0	0.000	0.0
20100202 04:30	-3.2	-9.2	-3.2	90	-4.6	19	31	270	0.0	1017.7	0	0.000	0.0
20100202 04:35	-3.2	-9.2	-3.2	89	-4.8	19	29	270	0.0	1017.8	0	0.000	0.0
20100202 04:40	-3.2	-9.4	-3.2	89	-4.8	21	34	270	0.0	1017.8	0	0.000	0.0
20100202 04:45	-3.2	-9.4	-3.2	89	-4.7	21	34	270	0.0	1017.9	0	0.000	0.0
20100202 04:50	-3.2	-9.4	-3.2	89	-4.7	21	32	270	0.0	1018.1	0	0.000	0.0
20100202 04:55	-3.1	-9.0	-3.1	89	-4.7	19	31	270	0.0	1018.2	0	0.000	0.0
20100202 05:00	-3.1	-8.8	-3.1	89	-4.7	18	27	270	0.0	1018.1	0	0.025	0.0
20100202 05:05	-3.1	-8.5	-3.1	89	-4.7	16	29	270	0.0	1018.2	0	0.000	0.0
20100202 05:10	-3.1	-9.0	-3.1	88	-4.8	19	35	270	0.0	1018.3	0	0.000	0.0
20100202 05:15	-3.1	-8.1	-3.1	88	-4.8	14	29	270	0.0	1018.3	0	0.000	0.0
20100202 05:20	-3.1	-8.8	-3.1	88	-4.8	18	29	270	0.0	1018.4	0	0.000	0.0
20100202 05:25	-3.1	-8.1	-3.1	88	-4.8	14	24	270	0.0	1018.5	0	0.000	0.0
20100202 05:30	-3.2	-8.5	-3.2	89	-4.7	16	29	270	0.2	1018.3	0	0.000	0.0
20100202 05:35	-3.2	-8.6	-3.2	89	-4.8	16	26	270	0.0	1018.6	0	0.000	0.0
20100202 05:40	-3.2	-8.9	-3.2	89	-4.8	18	29	270	0.0	1018.5	0	0.000	0.0
20100202 05:45	-3.2	-9.4	-3.2	89	-4.7	21	34	270	0.0	1018.4	0	0.000	0.0
20100202 05:50	-3.1	-8.8	-3.1	88	-4.8	18	31	270	0.0	1018.6	0	0.000	0.0
20100202 05:55	-3.1	-9.0	-3.1	88	-4.8	19	32	292	0.0	1018.5	0	0.000	0.0
20100202 06:00	-3.1	-9.2	-3.1	87	-4.9	21	34	270	0.0	1018.6	0	0.025	0.0
20100202 06:05	-3.1	-8.7	-3.1	86	-5.1	18	29	270	0.0	1018.4	0	0.000	0.0
20100202 06:10	-3.1	-8.8	-3.1	86	-5.1	18	32	270	0.0	1018.5	0	0.000	0.0
20100202 06:15	-3.2	-8.8	-3.2	86	-5.2	18	26	270	0.0	1018.8	0	0.000	0.0
20100202 06:20	-3.1	-9.0	-3.1	85	-5.3	19	34	270	0.0	1018.7	0	0.000	0.0
20100202 06:25	-3.1	-9.0	-3.1	85	-5.3	19	29	270	0.0	1018.8	0	0.000	0.0
20100202 06:30	-3.1	-9.2	-3.1	85	-5.2	21	40	270	0.0	1018.8	0	0.000	0.0
20100202 06:35	-3.1	-9.2	-3.1	86	-5.1	21	35	270	0.0	1018.9	0	0.000	0.0
20100202 06:40	-3.1	-8.8	-3.1	86	-5.1	18	29	270	0.0	1019.0	0	0.000	0.0
20100202 06:45	-3.1	-8.5	-3.1	86	-5.1	16	27	270	0.0	1019.1	0	0.000	0.0
20100202 06:50	-3.1	-8.7	-3.1	85	-5.2	18	31	248	0.0	1019.0	0	0.000	0.0
20100202 06:55	-3.1	-9.0	-3.1	85	-5.2	19	31	270	0.0	1019.0	0	0.000	0.0
20100202 07:00	-3.0	-8.6	-3.0	84	-5.3	18	32	270	0.0	1018.9	0	0.025	0.0
20100202 07:05	-3.0	-8.6	-3.0	84	-5.3	18	29	270	0.0	1019.0	0	0.000	0.0
20100202 07:10	-2.9	-8.5	-2.9	83	-5.4	18	31	248	0.0	1019.0	0	0.000	0.0
20100202 07:15	-2.9	-8.8	-2.9	83	-5.4	19	29	270	0.0	1019.0	0	0.000	0.0
20100202 07:20	-3.0	-8.6	-3.0	83	-5.5	18	29	270	0.0	1019.1	0	0.000	0.0
20100202 07:25	-3.0	-8.3	-3.0	83	-5.5	16	31	270	0.0	1019.2	0	0.000	0.0
20100202 07:30	-3.0	-8.3	-3.0	83	-5.5	16	27	248	0.0	1019.2	0	0.000	0.0
20100202 07:35	-2.9	-8.8	-2.9	82	-5.6	19	32	270	0.0	1019.3	0	0.000	0.0
20100202 07:40	-3.0	-9.2	-3.0	82	-5.6	21	34	270	0.0	1019.4	0	0.000	0.0
20100202 07:45	-3.0	-8.3	-3.0	81	-5.8	16	26	270	0.0	1019.5	0	0.000	0.0
20100202 07:50	-3.2	-8.5	-3.2	81	-6.0	16	26	270	0.0	1019.6	5	0.000	0.0
20100202 07:55	-3.2	-8.8	-3.2	82	-5.8	18	27	270	0.0	1019.6	7	0.000	0.0
20100202 08:00	-3.2	-8.9	-3.2	82	-5.9	18	27	270	0.0	1019.7	9	0.025	0.0
20100202 08:05	-3.2	-8.6	-3.2	82	-5.9	16	24	270	0.0	1019.6	11	0.000	0.0
20100202 08:10	-3.2	-9.4	-3.2	82	-5.8	21	32	270	0.0	1019.7	16	0.000	0.0
20100202 08:15	-3.2	-8.8	-3.2	82	-5.8	18	29	270	0.0	1019.9	21	0.000	0.0
20100202 08:20	-3.2	-8.8	-3.2	82	-5.8	18	29	248	0.0	1019.8	26	0.000	0.0
20100202 08:25	-3.2	-9.1	-3.2	82	-5.8	19	27	270	0.0	1020.1	34	0.000	0.0
20100202 08:30	-3.1	-8.8	-3.1	82	-5.7	18	32	270	0.0	1020.1	51	0.000	0.0
20100202 08:35	-3.1	-8.4	-3.1	81	-5.8	16	27	270	0.0	1020.1	55	0.000	0.0
20100202 08:40	-2.9	-8.5	-2.9	81	-5.7	18	29	270	0.0	1020.1	68	0.000	0.0
20100202 08:45	-2.8	-8.7	-2.8	81	-5.6	19	29	270	0.0	1020.2	70	0.000	0.0
20100202 08:50	-2.8	-8.3	-2.8	81	-5.6	18	27	270	0.0	1020.1	77	0.000	0.0
20100202 08:55	-2.7	-8.0	-2.7	81	-5.5	16	26	270	0.0	1020.1	67	0.000	0.0
20100202 09:00	-2.7	-7.9	-2.7	81	-5.5	16	27	270	0.0	1020.1	72	0.025	0.0
20100202 09:05	-2.6	-7.5	-2.6	80	-5.6	14	27	270	0.0	1020.1	81	0.000	0.0
20100202 09:10	-2.6	-7.8	-2.6	80	-5.5	16	27	248	0.0	1020.3	92	0.000	0.0
20100202 09:15	-2.5	-7.0	-2.5	80	-5.5	13	27	248	0.0	1020.1	98	0.000	0.0
20100202 09:20	-2.4	-7.3	-2.4	80	-5.4	14	31	270	0.0	1020.0	99	0.000	0.0
20100202 09:25	-2.4	-7.6	-2.4	79	-5.5	16	31	270	0.0	1020.1	84	0.000	0.0
20100202 09:30	-2.4	-7.3	-2.4	79	-5.6	14	26	270	0.0	1020.2	90	0.000	0.0
20100202 09:35	-2.3	-7.8	-2.3	79	-5.5	18	29	270	0.0	1020.3	117	0.000	0.0
20100202 09:40	-2.2	-7.9	-2.2	78	-5.5	19	34	270	0.0	1020.3	111	0.000	0.2
20100202 09:45	-2.1	-7.2	-2.1	79	-5.3	16	27	270	0.0	1020.4	144	0.000	0.5
20100202 09:50	-2.0	-7.1	-2.0	78	-5.3	16	29	270	0.0	1020.5	145	0.000	0.5
20100202 09:55	-1.9	-7.6	-1.9	78	-5.3	19	34	270	0.0	1020.5	144	0.000	0.5
20100202 10:00	-1.9	-7.5	-1.9	77	-5.4	19	31	270	0.0	1020.4	162	0.051	0.6
20100202 10:05	-1.8	-6.8	-1.8	77	-5.3	16	27	248	0.0	1020.5	173	0.000	0.6
20100202 10:10	-1.7	-6.4	-1.7	77	-5.2	14	26	270	0.0	1020.4	169	0.000	0.6
20100202 10:15	-1.7	-6.9	-1.7	76	-5.3	18	35	248	0.0	1020.4	164	0.000	0.7
20100202 10:20	-1.7	-7.7	-1.7	75	-5.5	23	40	270	0.0	1020.3	160	0.000	0.7
20100202 10:25	-1.7	-7.5	-1.7	75	-5.5	21	32	270	0.0	1020.3	161	0.000	0.7
20100202 10:30	-1.6	-7.4	-1.6	75	-5.5	21	35	270	0.0	1020.3	168	0.000	0.8
20100202 10:35	-1.6	-6.8	-1.6	75	-5.4	18	27	270	0.0	1020.1	179	0.000	0.8
20100202 10:40	-1.5	-7.0	-1.5	74	-5.5	19	29	270	0.0	1020.1	150	0.000	0.9
20100202 10:45	-1.4	-6.9	-1.4	74	-5.4	19	32	270	0.0	1020.0	140	0.000	0.9
20100202 10:50	-1.3	-6.8	-1.3	73	-5.5	19	31	270	0.0	1020.0	169	0.000	1.0
20100202 10:55	-1.3	-6.2	-1.3	73	-5.5	16	34	248	0.0	1020.1	111	0.000	0.9
20100202 11:00	-1.3	-6.5	-1.3	73	-5.5	18	31	270	0.0	1020.1	90	0.076	1.0
20100202 11:05	-1.2	-6.6	-1.2	72	-5.6	19	32	270	0.0	1019.9	85	0.000	1.0
20100202 11:10	-1.1	-6.2	-1.1	71	-5.6	18	26	248	0.0	1019.8	175	0.000	1.0
20100202 11:15	-0.9	-5.8	-0.9	71	-5.5	16	29	270	0.0	1019.8	368	0.000	1.1
20100202 11:20	-0.8	-6.1	-0.8	71	-5.4	19	34	270	0.0	1019.8	277	0.000	1.3
20100202 11:25	-0.6	-5.1	-0.6	70	-5.4	14	29	270	0.0	1019.7	390	0.000	1.2
20100202 11:30	-0.4	-4.8	-0.4	69	-5.4	14	26	270	0.0	1019.7	452	0.000	1.3
20100202 11:35	-0.4	-5.4	-0.4	68	-5.6	18	34	248	0.0	1019.6	141	0.000	1.2
20100202 11:40	-0.4	-5.1	-0.4	68	-5.6	16	27	270	0.0	1019.6	279	0.000	1.3
20100202 11:45	-0.3	-5.5	-0.3	68	-5.5	19	31	270	0.0	1019.5	244	0.000	1.3
20100202 11:50	-0.3	-5.7	-0.3	67	-5.7	21	40	270	0.0	1019.4	266	0.000	1.3
20100202 11:55	-0.2	-5.6	-0.2	67	-5.5	21	37	270	0.0	1019.1	410	0.000	1.4
20100202 12:00	0.3	-4.5	0.3	67	-5.1	18	29	270	0.0	1019.1	654	0.127	1.6
20100202 12:05	0.7	-4.0	0.7	65	-5.2	18	32	248	0.0	1019.0	514	0.000	1.5
20100202 12:10	0.5	-4.9	0.5	64	-5.5	23	42	270	0.0	1018.9	471	0.000	1.5
20100202 12:15	0.4	-5.0	0.4	64	-5.6	23	37	248	0.0	1018.9	441	0.000	1.5
20100202 12:20	0.4	-4.6	0.4	64	-5.6	19	34	270	0.0	1018.8	436	0.000	1.5
20100202 12:25	0.4	-4.1	0.4	64	-5.6	16	27	270	0.0	1018.7	437	0.000	1.4
20100202 12:30	0.4	-4.3	0.4	63	-5.8	18	31	248	0.0	1018.6	440	0.000	1.4
20100202 12:35	0.5	-4.2	0.5	62	-5.9	18	29	270	0.0	1018.5	434	0.000	1.5
20100202 12:40	0.6	-3.8	0.6	63	-5.6	16	32	248	0.0	1018.4	423	0.000	1.5
20100202 12:45	0.7	-4.2	0.7	62	-5.7	19	31	248	0.0	1018.3	432	0.000	1.5
20100202 12:50	0.8	-4.6	0.8	61	-5.9	23	39	248	0.0	1018.2	436	0.000	1.5
20100202 12:55	0.8	-4.4	0.8	63	-5.5	21	39	270	0.0	1018.2	390	0.000	1.5
20100202 13:00	0.9	-4.2	0.9	60	-6.0	21	39	270	0.0	1017.8	428	0.178	1.5
20100202 13:05	0.8	-4.5	0.8	60	-6.0	23	40	270	0.0	1017.7	264	0.000	1.3
20100202 13:10	0.7	-4.9	0.7	61	-6.0	24	39	248	0.0	1017.8	323	0.000	1.3
20100202 13:15	0.6	-5.3	0.6	61	-6.1	26	43	270	0.0	1017.7	325	0.000	1.3
20100202 13:20	0.5	-5.3	0.5	62	-5.9	26	47	270	0.0	1017.6	266	0.000	1.3
20100202 13:25	0.4	-5.0	0.4	62	-6.0	23	43	248	0.0	1017.5	345	0.000	1.3
20100202 13:30	0.6	-4.4	0.6	62	-5.9	19	35	248	0.0	1017.4	328	0.000	1.3
20100202 13:35	0.6	-5.0	0.6	61	-6.0	24	35	248	0.0	1017.3	347	0.000	1.3
20100202 13:40	0.9	-3.5	0.9	63	-5.4	16	27	270	0.0	1017.2	409	0.000	1.3
20100202 13:45	1.1	-4.2	1.1	61	-5.6	23	47	270	0.0	1017.0	393	0.000	1.3
20100202 13:50	1.1	-4.6	1.1	58	-6.3	26	43	248	0.0	1017.0	333	0.000	1.2
20100202 13:55	0.8	-5.3	0.8	60	-6.0	29	50	248	0.0	1016.9	308	0.000	1.2
20100202 14:00	0.9	-4.6	0.9	60	-5.9	24	40	248	0.0	1017.0	323	0.178	1.2
20100202 14:05	1.1	-4.2	1.1	60	-5.8	23	37	270	0.0	1016.9	346	0.000	1.1
20100202 14:10	1.1	-3.7	1.1	60	-5.8	19	37	270	0.0	1016.9	357	0.000	1.1
20100202 14:15	1.2	-4.5	1.2	59	-5.9	26	42	270	0.0	1016.8	371	0.000	1.1
20100202 14:20	1.2	-4.8	1.2	59	-5.9	29	43	270	0.0	1016.9	429	0.000	1.1
20100202 14:25	1.1	-4.7	1.1	59	-6.0	27	45	270	0.0	1016.7	433	0.000	1.0
20100202 14:30	0.9	-4.6	0.9	59	-6.2	24	39	248	0.0	1016.7	281	0.000	0.9
20100202 14:35	0.9	-4.8	0.9	59	-6.2	26	43	248	0.0	1016.7	240	0.000	0.9
20100202 14:40	1.0	-4.9	1.0	59	-6.1	27	47	270	0.0	1016.7	305	0.000	0.8
20100202 14:45	1.1	-4.6	1.1	60	-5.8	26	47	270	0.0	1016.8	281	0.000	0.8
20100202 14:50	0.9	-4.8	0.9	60	-6.0	26	42	270	0.0	1016.8	176	0.000	0.7
20100202 14:55	0.9	-4.4	0.9	60	-5.9	23	43	270	0.0	1016.7	233	0.000	0.7
20100202 15:00	1.0	-4.7	1.0	61	-5.7	26	43	270	0.0	1016.9	202	0.178	0.6
20100202 15:05	1.1	-4.2	1.1	61	-5.6	23	37	270	0.0	1016.8	205	0.000	0.6
20100202 15:10	1.0	-4.3	1.0	61	-5.7	23	37	270	0.0	1016.8	193	0.000	0.6
20100202 15:15	0.9	-4.0	0.9	62	-5.6	19	32	270	0.0	1016.9	173	0.000	0.5
20100202 15:20	1.0	-3.9	1.0	61	-5.7	19	32	270	0.0	1016.9	167	0.000	0.5
20100202 15:25	1.0	-3.6	1.0	61	-5.7	18	31	270	0.0	1016.9	143	0.000	0.1
20100202 15:30	0.9	-4.4	0.9	61	-5.7	23	39	270	0.0	1016.8	122	0.000	0.0
20100202 15:35	0.8	-4.6	0.8	61	-5.9	23	35	270	0.0	1016.7	100	0.000	0.0
20100202 15:40	0.8	-4.1	0.8	62	-5.7	19	32	270	0.0	1016.8	94	0.000	0.0
20100202 15:45	0.8	-3.9	0.8	62	-5.7	18	31	270	0.0	1016.7	102	0.000	0.0
20100202 15:50	0.8	-3.6	0.8	62	-5.6	16	27	248	0.0	1016.4	98	0.000	0.0
20100202 15:55	0.9	-3.9	0.9	60	-5.9	19	37	270	0.0	1016.3	95	0.000	0.0
20100202 16:00	0.9	-4.2	0.9	60	-5.9	21	35	248	0.0	1016.3	73	0.102	0.0
20100202 16:05	0.9	-4.2	0.9	60	-6.0	21	34	248	0.0	1016.2	63	0.000	0.0
20100202 16:10	0.8	-4.4	0.8	60	-6.1	21	34	248	0.0	1016.0	57	0.000	0.0
20100202 16:15	0.7	-3.4	0.7	60	-6.1	14	27	248	0.0	1016.1	50	0.000	0.0
20100202 16:20	0.8	-3.6	0.8	59	-6.3	16	26	248	0.0	1016.0	42	0.000	0.0
20100202 16:25	0.8	-3.6	0.8	59	-6.3	16	27	248	0.0	1015.9	37	0.000	0.0
20100202 16:30	0.8	-3.9	0.8	59	-6.3	18	34	248	0.0	1015.9	31	0.000	0.0
20100202 16:35	0.7	-4.7	0.7	60	-6.1	23	39	248	0.0	1015.8	26	0.000	0.0
20100202 16:40	0.7	-4.4	0.7	59	-6.4	21	37	248	0.0	1015.8	22	0.000	0.0
20100202 16:45	0.7	-4.5	0.7	60	-6.2	21	34	248	0.0	1015.7	19	0.000	0.0
20100202 16:50	0.7	-4.5	0.7	60	-6.2	21	35	248	0.0	1015.7	15	0.000	0.0
20100202 16:55	0.7	-3.7	0.7	60	-6.1	16	32	248	0.0	1015.6	11	0.000	0.0
20100202 17:00	0.7	-4.5	0.7	60	-6.2	21	34	248	0.0	1015.6	8	0.076	0.0
20100202 17:05	0.6	-4.4	0.6	61	-6.0	19	31	248	0.0	1015.4	5	0.000	0.0
20100202 17:10	0.5	-4.2	0.5	61	-6.1	18	27	248	0.0	1015.3	0	0.000	0.0
20100202 17:15	0.4	-3.8	0.4	61	-6.2	14	26	248	0.0	1015.3	0	0.000	0.0
20100202 17:20	0.4	-4.0	0.4	61	-6.2	16	26	248	0.0	1015.4	0	0.000	0.0
20100202 17:25	0.4	-4.3	0.4	60	-6.4	18	26	248	0.0	1015.3	0	0.000	0.0
20100202 17:30	0.4	-4.0	0.4	61	-6.2	16	24	248	0.0	1015.4	0	0.000	0.0
20100202 17:35	0.5	-4.0	0.5	61	-6.1	16	29	248	0.0	1015.3	0	0.000	0.0
20100202 17:40	0.5	-4.0	0.5	60	-6.4	16	32	248	0.0	1015.3	0	0.000	0.0
20100202 17:45	0.5	-3.4	0.5	61	-6.1	13	26	248	0.0	1015.2	0	0.000	0.0
20100202 17:50	0.4	-2.7	0.4	61	-6.2	10	19	248	0.0	1015.3	0	0.000	0.0
20100202 17:55	0.4	-3.8	0.4	61	-6.2	14	26	248	0.0	1015.3	0	0.000	0.0
20100202 18:00	0.3	-4.5	0.3	62	-6.1	18	31	248	0.0	1015.2	0	0.051	0.0
20100202 18:05	0.3	-4.2	0.3	62	-6.1	16	31	248	0.0	1015.0	0	0.000	0.0
20100202 18:10	0.4	-4.1	0.4	63	-5.8	16	29	248	0.0	1015.0	0	0.000	0.0
20100202 18:15	0.3	-4.2	0.3	64	-5.7	16	27	248	0.0	1015.0	0	0.000	0.0
20100202 18:20	0.3	-4.5	0.3	63	-5.9	18	31	248	0.0	1014.9	0	0.000	0.0
20100202 18:25	0.4	-4.3	0.4	63	-5.8	18	34	248	0.0	1014.9	0	0.000	0.0
20100202 18:30	0.6	-4.2	0.6	62	-5.9	18	29	248	0.0	1014.8	0	0.000	0.0
20100202 18:35	0.6	-4.1	0.6	62	-5.8	18	31	248	0.0	1014.8	0	0.000	0.0
20100202 18:40	0.7	-4.5	0.7	62	-5.8	21	34	248	0.0	1014.8	0	0.000	0.0
20100202 18:45	0.7	-4.3	0.7	63	-5.6	19	29	248	0.0	1014.8	0	0.000	0.0
20100202 18:50	0.7	-4.3	0.7	63	-5.6	19	31	248	0.0	1014.7	0	0.000	0.0
20100202 18:55	0.7	-4.2	0.7	63	-5.5	19	40	248	0.0	1014.7	0	0.000	0.0
20100202 19:00	0.8	-4.6	0.8	61	-5.9	23	37	248	0.0	1014.4	0	0.051	0.0
20100202 19:05	0.8	-4.3	0.8	61	-5.8	21	37	248	0.0	1014.3	0	0.000	0.0
20100202 19:10	0.8	-3.6	0.8	61	-5.9	16	27	248	0.0	1014.4	0	0.000	0.0
20100202 19:15	0.7	-3.4	0.7	62	-5.7	14	27	248	0.0	1014.2	0	0.000	0.0
20100202 19:20	0.7	-4.0	0.7	61	-5.9	18	35	248	0.0	1014.1	0	0.000	0.0
20100202 19:25	0.8	-3.9	0.8	61	-5.9	18	26	248	0.0	1014.1	0	0.000	0.0
20100202 19:30	0.8	-3.6	0.8	61	-5.9	16	31	248	0.0	1014.0	0	0.000	0.0
20100202 19:35	0.7	-4.0	0.7	61	-5.9	18	29	225	0.0	1014.0	0	0.000	0.0
20100202 19:40	0.7	-3.4	0.7	62	-5.7	14	29	248	0.0	1014.0	0	0.000	0.0
20100202 19:45	0.7	-3.7	0.7	62	-5.7	16	29	248	0.0	1013.9	0	0.000	0.0
20100202 19:50	0.7	-3.4	0.7	62	-5.7	14	24	270	0.0	1013.8	0	0.000	0.0
20100202 19:55	0.7	-4.4	0.7	62	-5.7	21	39	248	0.0	1013.6	0	0.000	0.0
20100202 20:00	0.8	-4.3	0.8	62	-5.6	21	35	248	0.0	1013.7	0	0.051	0.0
20100202 20:05	0.8	-4.1	0.8	62	-5.6	19	43	248	0.0	1013.5	0	0.000	0.0
20100202 20:10	0.8	-3.8	0.8	62	-5.6	18	32	248	0.0	1013.3	0	0.000	0.0
20100202 20:15	0.9	-4.2	0.9	62	-5.6	21	40	248	0.0	1013.3	0	0.000	0.0
20100202 20:20	0.9	-4.4	0.9	63	-5.4	23	37	248	0.0	1013.3	0	0.000	0.0
20100202 20:25	0.9	-4.4	0.9	62	-5.6	23	40	248	0.0	1013.2	0	0.000	0.0
20100202 20:30	0.9	-3.5	0.9	63	-5.4	16	31	248	0.0	1013.2	0	0.000	0.0
20100202 20:35	0.9	-4.2	0.9	63	-5.3	21	37	248	0.0	1013.1	0	0.000	0.0
20100202 20:40	0.9	-4.2	0.9	63	-5.3	21	45	248	0.0	1013.1	0	0.000	0.0
20100202 20:45	1.0	-4.5	1.0	68	-4.2	24	40	248	0.0	1013.0	0	0.000	0.0
20100202 20:50	1.0	-3.9	1.0	64	-5.0	19	40	248	0.0	1012.9	0	0.000	0.0
20100202 20:55	1.0	-4.3	1.0	64	-5.0	23	37	248	0.0	1012.8	0	0.000	0.0
20100202 21:00	1.0	-4.3	1.0	65	-4.8	23	37	248	0.0	1012.7	0	0.051	0.0
20100202 21:05	1.0	-4.7	1.0	66	-4.6	26	39	248	0.0	1012.5	0	0.000	0.0
20100202 21:10	0.9	-4.2	0.9	66	-4.7	21	37	248	0.0	1012.4	0	0.000	0.0
20100202 21:15	1.0	-4.5	1.0	66	-4.6	24	40	248	0.0	1012.3	0	0.000	0.0



Please note the license to use and transfer of this data:
http://creativecommons.org/licenses/by-nc-sa/3.0/deed.en

Bitte beachten sie die Lizenz zur Verwertung und Weitergabe der Daten:
http://creativecommons.org/licenses/by-nc-sa/3.0/deed.de

zurück zur Übersicht der Archivdaten (Monats und Tagesdaten)

Cookies helfen bei der Bereitstellung von Inhalten. Durch die Nutzung dieser Seiten erklärst du dich damit einverstanden, dass Cookies auf deinem Rechner gespeichert werden. Weitere Information